createdAt,value
2024-02-24T00:01:43.741Z,99356.00
2024-02-24T00:04:10.365Z,99354.53
2024-02-24T00:06:36.986Z,99346.75
2024-02-24T00:09:03.695Z,99359.19
2024-02-24T00:11:30.509Z,99364.47
2024-02-24T00:13:57.355Z,99363.41
2024-02-24T00:16:23.953Z,99367.09
2024-02-24T00:18:50.495Z,99365.94
2024-02-24T00:21:17.028Z,99371.75
2024-02-24T00:23:43.703Z,99372.19
2024-02-24T00:26:10.495Z,99377.03
2024-02-24T00:28:37.229Z,99371.75
2024-02-24T00:31:03.932Z,99380.22
2024-02-24T00:33:30.585Z,99381.06
2024-02-24T00:35:57.100Z,99370.53
2024-02-24T00:38:23.727Z,99375.81
2024-02-24T00:40:50.278Z,99372.84
2024-02-24T00:43:16.871Z,99366.84
2024-02-24T00:45:43.327Z,99373.59
2024-02-24T00:48:10.219Z,99378.59
2024-02-24T00:50:36.755Z,99375.34
2024-02-24T00:53:03.613Z,99372.28
2024-02-24T00:55:30.327Z,99373.13
2024-02-24T00:57:56.849Z,99370.63
2024-02-24T01:00:23.595Z,99371.03
2024-02-24T01:02:50.309Z,99380.84
2024-02-24T01:05:17.116Z,99371.47
2024-02-24T01:07:43.722Z,99374.84
2024-02-24T01:10:11.266Z,99382.13
2024-02-24T01:12:37.975Z,99384.03
2024-02-24T01:15:05.189Z,99385.06
2024-02-24T01:17:31.838Z,99382.75
2024-02-24T01:19:58.862Z,99379.06
2024-02-24T01:22:25.626Z,99385.50
2024-02-24T01:24:53.146Z,99386.22
2024-02-24T01:27:19.703Z,99394.13
2024-02-24T01:29:46.341Z,99381.28
2024-02-24T01:32:13.260Z,99384.75
2024-02-24T01:34:39.791Z,99388.56
2024-02-24T01:37:06.278Z,99396.88
2024-02-24T01:39:33.483Z,99394.69
2024-02-24T01:42:00.024Z,99387.94
2024-02-24T01:44:26.740Z,99387.94
2024-02-24T01:46:53.209Z,99386.59
2024-02-24T01:49:19.737Z,99390.38
2024-02-24T01:51:46.541Z,99391.53
2024-02-24T01:54:14.122Z,99390.06
2024-02-24T01:56:41.221Z,99389.44
2024-02-24T01:59:08.559Z,99391.66
2024-02-24T02:01:35.425Z,99395.44
2024-02-24T02:04:02.483Z,99393.56
2024-02-24T02:06:32.817Z,99398.50
2024-02-24T02:09:00.768Z,99397.78
2024-02-24T02:11:27.511Z,99400.84
2024-02-24T02:13:54.195Z,99401.69
2024-02-24T02:16:21.009Z,99406.22
2024-02-24T02:18:47.585Z,99412.78
2024-02-24T02:21:16.181Z,99409.84
2024-02-24T02:23:42.863Z,99413.63
2024-02-24T02:26:09.715Z,99414.38
2024-02-24T02:28:36.244Z,99412.47
2024-02-24T02:31:02.719Z,99420.78
2024-02-24T02:33:29.637Z,99412.16
2024-02-24T02:35:56.375Z,99422.38
2024-02-24T02:38:23.131Z,99409.94
2024-02-24T02:40:49.669Z,99412.28
2024-02-24T02:43:16.218Z,99404.81
2024-02-24T02:45:43.209Z,99421.31
2024-02-24T02:48:11.428Z,99414.59
2024-02-24T02:50:38.094Z,99411.97
2024-02-24T02:53:05.361Z,99414.16
2024-02-24T02:55:31.999Z,99407.53
2024-02-24T02:57:58.576Z,99416.59
2024-02-24T03:00:25.322Z,99411.75
2024-02-24T03:02:51.994Z,99421.56
2024-02-24T03:05:18.718Z,99423.75
2024-02-24T03:07:45.364Z,99427.97
2024-02-24T03:10:12.818Z,99423.75
2024-02-24T03:12:39.478Z,99427.56
2024-02-24T03:15:06.629Z,99427.44
2024-02-24T03:17:33.317Z,99435.34
2024-02-24T03:20:00.013Z,99432.41
2024-02-24T03:22:28.484Z,99433.88
2024-02-24T03:24:55.357Z,99427.13
2024-02-24T03:27:21.915Z,99424.81
2024-02-24T03:29:48.550Z,99420.69
2024-02-24T03:32:15.126Z,99419.13
2024-02-24T03:34:41.693Z,99417.66
2024-02-24T03:37:08.231Z,99427.75
2024-02-24T03:39:34.925Z,99425.75
2024-02-24T03:42:01.568Z,99420.91
2024-02-24T03:44:28.176Z,99418.69
2024-02-24T03:46:54.737Z,99424.69
2024-02-24T03:49:21.408Z,99427.75
2024-02-24T03:51:48.006Z,99428.19
2024-02-24T03:54:14.525Z,99426.06
2024-02-24T03:56:41.104Z,99426.81
2024-02-24T03:59:07.705Z,99425.34
2024-02-24T04:01:34.615Z,99427.97
2024-02-24T04:04:01.122Z,99424.19
2024-02-24T04:06:27.631Z,99436.59
2024-02-24T04:08:54.413Z,99435.88
2024-02-24T04:11:21.286Z,99427.66
2024-02-24T04:13:47.888Z,99438.31
2024-02-24T04:16:14.393Z,99433.03
2024-02-24T04:18:40.994Z,99442.50
2024-02-24T04:21:07.550Z,99436.94
2024-02-24T04:23:34.101Z,99427.56
2024-02-24T04:26:00.638Z,99434.41
2024-02-24T04:28:27.139Z,99434.41
2024-02-24T04:30:53.692Z,99429.56
2024-02-24T04:33:20.971Z,99439.03
2024-02-24T04:35:47.783Z,99436.53
2024-02-24T04:38:14.441Z,99446.34
2024-02-24T04:40:40.978Z,99447.91
2024-02-24T04:43:07.516Z,99453.19
2024-02-24T04:45:34.038Z,99457.81
2024-02-24T04:48:00.734Z,99456.34
2024-02-24T04:50:27.577Z,99464.53
2024-02-24T04:52:54.280Z,99464.13
2024-02-24T04:55:20.859Z,99468.97
2024-02-24T04:57:47.551Z,99474.97
2024-02-24T05:00:14.308Z,99481.69
2024-02-24T05:02:40.873Z,99477.59
2024-02-24T05:05:07.752Z,99482.84
2024-02-24T05:07:34.530Z,99490.75
2024-02-24T05:10:01.165Z,99480.66
2024-02-24T05:12:27.703Z,99488.13
2024-02-24T05:14:54.208Z,99488.66
2024-02-24T05:17:20.749Z,99487.06
2024-02-24T05:19:48.284Z,99492.31
2024-02-24T05:22:14.757Z,99500.97
2024-02-24T05:24:42.628Z,99500.97
2024-02-24T05:27:09.144Z,99502.84
2024-02-24T05:29:35.722Z,99501.81
2024-02-24T05:32:02.269Z,99510.84
2024-02-24T05:34:29.129Z,99514.53
2024-02-24T05:36:55.862Z,99514.13
2024-02-24T05:39:22.409Z,99514.53
2024-02-24T05:41:50.678Z,99516.66
2024-02-24T05:44:17.329Z,99506.84
2024-02-24T05:46:43.833Z,99508.63
2024-02-24T05:49:10.601Z,99515.06
2024-02-24T05:51:37.213Z,99513.19
2024-02-24T05:54:04.399Z,99512.00
2024-02-24T05:56:30.894Z,99512.72
2024-02-24T05:58:57.393Z,99519.47
2024-02-24T06:01:24.045Z,99518.31
2024-02-24T06:03:50.696Z,99517.16
2024-02-24T06:06:17.423Z,99530.63
2024-02-24T06:08:44.831Z,99532.22
2024-02-24T06:11:11.465Z,99538.94
2024-02-24T06:13:38.038Z,99539.25
2024-02-24T06:16:04.968Z,99538.53
2024-02-24T06:18:31.691Z,99540.75
2024-02-24T06:20:58.482Z,99541.38
2024-02-24T06:23:25.243Z,99551.06
2024-02-24T06:25:51.779Z,99547.69
2024-02-24T06:28:18.331Z,99546.13
2024-02-24T06:30:46.564Z,99550.22
2024-02-24T06:33:13.355Z,99549.50
2024-02-24T06:35:39.996Z,99554.75
2024-02-24T06:38:06.514Z,99558.44
2024-02-24T06:40:40.731Z,99561.50
2024-02-24T06:43:12.221Z,99563.81
2024-02-24T06:45:39.354Z,99562.22
2024-02-24T06:48:06.349Z,99567.50
2024-02-24T06:50:33.042Z,99573.50
2024-02-24T06:52:59.616Z,99580.25
2024-02-24T06:55:26.230Z,99577.91
2024-02-24T06:57:52.831Z,99580.13
2024-02-24T07:00:19.544Z,99577.81
2024-02-24T07:02:47.435Z,99590.97
2024-02-24T07:05:14.055Z,99589.09
2024-02-24T07:07:40.681Z,99593.94
2024-02-24T07:10:07.602Z,99592.78
2024-02-24T07:12:34.145Z,99594.25
2024-02-24T07:15:00.697Z,99591.63
2024-02-24T07:17:28.219Z,99604.25
2024-02-24T07:19:56.102Z,99596.25
2024-02-24T07:22:22.938Z,99603.50
2024-02-24T07:24:49.521Z,99606.66
2024-02-24T07:27:16.084Z,99609.31
2024-02-24T07:29:42.728Z,99613.00
2024-02-24T07:32:09.583Z,99615.94
2024-02-24T07:34:36.508Z,99628.06
2024-02-24T07:37:03.301Z,99627.66
2024-02-24T07:39:30.069Z,99620.47
2024-02-24T07:41:56.676Z,99632.50
2024-02-24T07:44:23.375Z,99636.19
2024-02-24T07:46:50.069Z,99640.59
2024-02-24T07:49:16.732Z,99640.47
2024-02-24T07:51:44.237Z,99641.53
2024-02-24T07:54:10.877Z,99644.78
2024-02-24T07:56:37.599Z,99649.63
2024-02-24T07:59:04.200Z,99646.91
2024-02-24T08:01:30.964Z,99654.28
2024-02-24T08:03:57.572Z,99651.94
2024-02-24T08:06:24.199Z,99656.16
2024-02-24T08:08:50.926Z,99655.31
2024-02-24T08:11:18.095Z,99655.53
2024-02-24T08:13:44.721Z,99662.59
2024-02-24T08:16:11.294Z,99665.44
2024-02-24T08:18:38.075Z,99665.84
2024-02-24T08:21:08.485Z,99662.16
2024-02-24T08:23:35.863Z,99663.34
2024-02-24T08:26:03.003Z,99671.97
2024-02-24T08:28:29.733Z,99667.44
2024-02-24T08:30:56.984Z,99678.72
2024-02-24T08:33:26.226Z,99680.19
2024-02-24T08:35:54.491Z,99672.59
2024-02-24T08:38:21.189Z,99671.44
2024-02-24T08:40:47.860Z,99675.13
2024-02-24T08:43:14.644Z,99682.16
2024-02-24T08:45:42.561Z,99682.47
2024-02-24T08:48:13.590Z,99685.44
2024-02-24T08:50:41.443Z,99682.38
2024-02-24T08:53:08.256Z,99681.22
2024-02-24T08:55:34.798Z,99679.63
2024-02-24T08:58:01.346Z,99693.56
2024-02-24T09:00:27.832Z,99687.53
2024-02-24T09:02:54.923Z,99692.19
2024-02-24T09:05:21.902Z,99698.94
2024-02-24T09:07:48.786Z,99706.53
2024-02-24T09:10:15.554Z,99712.16
2024-02-24T09:12:42.144Z,99715.53
2024-02-24T09:15:09.095Z,99717.63
2024-02-24T09:17:35.684Z,99717.63
2024-02-24T09:20:02.290Z,99723.34
2024-02-24T09:22:29.181Z,99726.38
2024-02-24T09:24:55.750Z,99720.16
2024-02-24T09:27:22.297Z,99729.88
2024-02-24T09:29:48.863Z,99724.50
2024-02-24T09:32:18.808Z,99732.41
2024-02-24T09:34:45.925Z,99735.00
2024-02-24T09:37:12.833Z,99732.56
2024-02-24T09:39:41.776Z,99737.63
2024-02-24T09:42:10.600Z,99735.81
2024-02-24T09:44:38.118Z,99734.81
2024-02-24T09:47:05.964Z,99737.31
2024-02-24T09:49:32.794Z,99742.81
2024-02-24T09:52:00.761Z,99752.59
2024-02-24T09:54:30.274Z,99750.03
2024-02-24T09:56:57.545Z,99751.28
2024-02-24T09:59:25.731Z,99756.84
2024-02-24T10:01:52.595Z,99759.97
2024-02-24T10:04:19.992Z,99762.72
2024-02-24T10:06:46.864Z,99773.09
2024-02-24T10:09:13.770Z,99776.38
2024-02-24T10:11:41.325Z,99772.50
2024-02-24T10:14:08.572Z,99782.31
2024-02-24T10:16:37.244Z,99781.56
2024-02-24T10:19:05.817Z,99783.06
2024-02-24T10:21:33.420Z,99786.75
2024-02-24T10:24:01.493Z,99791.28
2024-02-24T10:26:29.002Z,99796.88
2024-02-24T10:28:55.782Z,99795.41
2024-02-24T10:31:24.479Z,99798.34
2024-02-24T10:33:52.138Z,99805.84
2024-02-24T10:36:19.889Z,99802.16
2024-02-24T10:38:55.929Z,99809.34
2024-02-24T10:41:26.518Z,99808.91
2024-02-24T10:44:02.587Z,99811.97
2024-02-24T10:46:37.532Z,99812.81
2024-02-24T10:49:05.499Z,99820.75
2024-02-24T10:51:34.978Z,99813.34
2024-02-24T10:54:17.447Z,99819.78
2024-02-24T10:56:44.732Z,99821.59
2024-02-24T10:59:12.477Z,99824.53
2024-02-24T11:01:48.315Z,99824.22
2024-02-24T11:04:17.140Z,99821.91
2024-02-24T11:06:49.655Z,99826.03
2024-02-24T11:09:20.940Z,99826.03
2024-02-24T11:11:49.202Z,99839.63
2024-02-24T11:14:21.512Z,99841.97
2024-02-24T11:16:49.732Z,99846.50
2024-02-24T11:19:48.902Z,99845.88
2024-02-24T11:22:20.302Z,99847.03
2024-02-24T11:24:59.445Z,99843.22
2024-02-24T11:27:33.036Z,99839.66
2024-02-24T11:29:59.780Z,99844.31
2024-02-24T11:32:27.054Z,99849.28
2024-02-24T11:34:56.607Z,99852.66
2024-02-24T11:37:23.866Z,99852.97
2024-02-24T11:39:50.456Z,99861.63
2024-02-24T11:42:18.729Z,99854.88
2024-02-24T11:44:47.359Z,99853.81
2024-02-24T11:47:18.636Z,99858.88
2024-02-24T11:49:46.720Z,99861.28
2024-02-24T11:52:14.736Z,99867.19
2024-02-24T11:54:41.646Z,99871.84
2024-02-24T11:57:08.356Z,99873.41
2024-02-24T11:59:37.818Z,99870.03
2024-02-24T12:02:04.537Z,99873.81
2024-02-24T12:04:31.297Z,99871.09
2024-02-24T12:06:59.579Z,99872.16
2024-02-24T12:09:26.280Z,99881.97
2024-02-24T12:11:53.216Z,99880.38
2024-02-24T12:14:20.522Z,99883.66
2024-02-24T12:16:47.918Z,99888.63
2024-02-24T12:19:14.712Z,99881.34
2024-02-24T12:21:42.449Z,99886.72
2024-02-24T12:24:10.587Z,99884.84
2024-02-24T12:26:37.130Z,99882.84
2024-02-24T12:29:05.348Z,99890.75
2024-02-24T12:31:31.953Z,99894.88
2024-02-24T12:33:59.000Z,99893.38
2024-02-24T12:36:26.386Z,99892.94
2024-02-24T12:38:52.939Z,99889.69
2024-02-24T12:41:19.912Z,99887.34
2024-02-24T12:43:46.425Z,99891.91
2024-02-24T12:46:12.913Z,99895.91
2024-02-24T12:48:42.615Z,99893.69
2024-02-24T12:51:11.363Z,99895.59
2024-02-24T12:53:37.993Z,99895.59
2024-02-24T12:56:04.961Z,99894.31
2024-02-24T12:58:31.522Z,99894.66
2024-02-24T13:00:58.510Z,99896.53
2024-02-24T13:03:25.404Z,99895.38
2024-02-24T13:05:52.608Z,99896.44
2024-02-24T13:08:19.338Z,99898.34
2024-02-24T13:10:47.113Z,99899.59
2024-02-24T13:13:13.911Z,99898.88
2024-02-24T13:15:40.464Z,99893.91
2024-02-24T13:18:07.713Z,99909.53
2024-02-24T13:20:34.691Z,99912.91
2024-02-24T13:23:01.334Z,99913.94
2024-02-24T13:25:29.102Z,99913.13
2024-02-24T13:27:55.739Z,99919.88
2024-02-24T13:30:23.154Z,99914.81
2024-02-24T13:32:51.235Z,99923.78
2024-02-24T13:35:17.987Z,99917.22
2024-02-24T13:37:45.893Z,99919.00
2024-02-24T13:40:12.539Z,99918.19
2024-02-24T13:42:39.636Z,99918.81
2024-02-24T13:45:08.164Z,99912.47
2024-02-24T13:47:35.766Z,99919.03
2024-02-24T13:50:02.866Z,99924.94
2024-02-24T13:52:29.819Z,99923.66
2024-02-24T13:54:56.454Z,99928.00
2024-02-24T13:57:23.516Z,99926.22
2024-02-24T13:59:51.028Z,99931.06
2024-02-24T14:02:17.774Z,99931.81
2024-02-24T14:04:44.340Z,99941.94
2024-02-24T14:07:10.964Z,99947.63
2024-02-24T14:09:37.680Z,99938.25
2024-02-24T14:12:05.312Z,99951.22
2024-02-24T14:14:33.041Z,99948.06
2024-02-24T14:16:59.615Z,99948.28
2024-02-24T14:19:26.329Z,99956.50
2024-02-24T14:21:54.234Z,99953.00
2024-02-24T14:24:20.786Z,99957.00
2024-02-24T14:26:47.414Z,99959.75
2024-02-24T14:29:14.163Z,99954.19
2024-02-24T14:31:40.818Z,99969.28
2024-02-24T14:34:07.635Z,99956.09
2024-02-24T14:36:34.350Z,99961.78
2024-02-24T14:39:01.224Z,99962.41
2024-02-24T14:41:28.622Z,99962.81
2024-02-24T14:43:55.279Z,99961.66
2024-02-24T14:46:21.788Z,99963.88
2024-02-24T14:48:49.685Z,99963.47
2024-02-24T14:51:17.909Z,99969.47
2024-02-24T14:53:44.626Z,99966.72
2024-02-24T14:56:11.215Z,99970.44
2024-02-24T14:58:39.022Z,99966.63
2024-02-24T15:01:05.546Z,99973.81
2024-02-24T15:03:37.688Z,99971.59
2024-02-24T15:06:04.582Z,99967.47
2024-02-24T15:08:31.768Z,99978.03
2024-02-24T15:10:58.664Z,99974.22
2024-02-24T15:13:31.050Z,99975.72
2024-02-24T15:15:58.700Z,99972.66
2024-02-24T15:18:25.393Z,99980.78
2024-02-24T15:20:52.083Z,99980.34
2024-02-24T15:23:18.952Z,99979.19
2024-02-24T15:25:47.525Z,99985.63
2024-02-24T15:28:14.730Z,99976.56
2024-02-24T15:30:41.642Z,99992.81
2024-02-24T15:33:08.373Z,99983.09
2024-02-24T15:35:35.191Z,99985.00
2024-02-24T15:38:01.734Z,99983.63
2024-02-24T15:40:30.791Z,99994.94
2024-02-24T15:42:59.762Z,99994.19
2024-02-24T15:45:26.277Z,99994.31
2024-02-24T15:47:53.108Z,99995.03
2024-02-24T15:50:21.074Z,99996.94
2024-02-24T15:52:47.677Z,99995.47
2024-02-24T15:55:14.577Z,99997.38
2024-02-24T15:57:42.588Z,99988.28
2024-02-24T16:00:11.019Z,99986.69
2024-02-24T16:02:39.910Z,99998.75
2024-02-24T16:05:06.821Z,99995.66
2024-02-24T16:07:33.586Z,99991.56
2024-02-24T16:10:00.209Z,99988.19
2024-02-24T16:12:28.390Z,99991.13
2024-02-24T16:14:55.315Z,99995.66
2024-02-24T16:17:23.441Z,99988.69
2024-02-24T16:19:50.166Z,99990.28
2024-02-24T16:22:16.870Z,99995.25
2024-02-24T16:24:43.403Z,99991.56
2024-02-24T16:27:10.166Z,99987.88
2024-02-24T16:29:36.866Z,99990.19
2024-02-24T16:32:06.170Z,99999.69
2024-02-24T16:34:33.980Z,100003.91
2024-02-24T16:37:00.517Z,100006.25
2024-02-24T16:39:27.227Z,100017.22
2024-02-24T16:41:56.308Z,100016.16
2024-02-24T16:44:23.166Z,100014.59
2024-02-24T16:46:49.918Z,100028.19
2024-02-24T16:49:18.947Z,100032.09
2024-02-24T16:51:45.822Z,100035.16
2024-02-24T16:54:13.424Z,100038.22
2024-02-24T16:56:40.088Z,100035.69
2024-02-24T16:59:06.715Z,100043.28
2024-02-24T17:01:33.184Z,100039.16
2024-02-24T17:04:01.117Z,100042.94
2024-02-24T17:06:27.827Z,100036.59
2024-02-24T17:08:54.413Z,100032.91
2024-02-24T17:11:21.458Z,100037.44
2024-02-24T17:13:48.187Z,100040.22
2024-02-24T17:16:14.835Z,100041.03
2024-02-24T17:18:42.145Z,100044.09
2024-02-24T17:21:09.014Z,100044.50
2024-02-24T17:23:38.300Z,100051.38
2024-02-24T17:26:05.390Z,100049.56
2024-02-24T17:28:32.123Z,100060.53
2024-02-24T17:31:00.032Z,100051.13
2024-02-24T17:33:26.798Z,100051.97
2024-02-24T17:35:53.518Z,100053.53
2024-02-24T17:38:23.156Z,100059.56
2024-02-24T17:40:50.114Z,100061.44
2024-02-24T17:43:16.855Z,100063.44
2024-02-24T17:45:43.415Z,100057.09
2024-02-24T17:48:10.253Z,100062.47
2024-02-24T17:50:37.121Z,100064.78
2024-02-24T17:53:03.835Z,100070.03
2024-02-24T17:55:30.518Z,100077.63
2024-02-24T17:57:57.113Z,100075.41
2024-02-24T18:00:23.944Z,100074.66
2024-02-24T18:02:53.898Z,100079.63
2024-02-24T18:05:21.370Z,100074.88
2024-02-24T18:07:50.940Z,100079.81
2024-02-24T18:10:17.468Z,100082.03
2024-02-24T18:12:44.266Z,100082.13
2024-02-24T18:15:11.755Z,100085.19
2024-02-24T18:17:38.691Z,100083.28
2024-02-24T18:20:09.452Z,100086.34
2024-02-24T18:22:36.547Z,100093.59
2024-02-24T18:25:03.542Z,100089.78
2024-02-24T18:27:30.156Z,100091.28
2024-02-24T18:29:57.409Z,100090.94
2024-02-24T18:32:24.083Z,100099.59
2024-02-24T18:34:52.066Z,100091.28
2024-02-24T18:37:20.293Z,100097.69
2024-02-24T18:39:46.916Z,100096.22
2024-02-24T18:42:13.629Z,100093.66
2024-02-24T18:44:40.340Z,100095.56
2024-02-24T18:47:07.481Z,100097.38
2024-02-24T18:49:35.926Z,100094.00
2024-02-24T18:52:03.576Z,100094.81
2024-02-24T18:54:30.405Z,100097.47
2024-02-24T18:56:57.270Z,100093.75
2024-02-24T18:59:24.094Z,100095.25
2024-02-24T19:01:50.726Z,100100.50
2024-02-24T19:04:17.452Z,100097.13
2024-02-24T19:06:44.071Z,100101.66
2024-02-24T19:09:10.605Z,100096.47
2024-02-24T19:11:37.257Z,100095.00
2024-02-24T19:14:03.836Z,100090.03
2024-02-24T19:16:30.728Z,100086.34
2024-02-24T19:18:57.483Z,100092.34
2024-02-24T19:21:28.017Z,100087.09
2024-02-24T19:23:54.935Z,100090.78
2024-02-24T19:26:23.016Z,100089.63
2024-02-24T19:28:49.648Z,100093.75
2024-02-24T19:31:16.155Z,100097.88
2024-02-24T19:33:42.908Z,100092.19
2024-02-24T19:36:09.628Z,100096.22
2024-02-24T19:38:36.210Z,100095.41
2024-02-24T19:41:02.740Z,100098.34
2024-02-24T19:43:30.243Z,100093.41
2024-02-24T19:45:58.622Z,100089.28
2024-02-24T19:48:25.792Z,100094.06
2024-02-24T19:50:52.490Z,100094.81
2024-02-24T19:53:21.260Z,100089.13
2024-02-24T19:55:50.357Z,100092.50
2024-02-24T19:58:24.774Z,100092.81
2024-02-24T20:01:01.411Z,100090.91
2024-02-24T20:03:27.982Z,100089.00
2024-02-24T20:05:54.711Z,100091.22
2024-02-24T20:08:21.564Z,100095.34
2024-02-24T20:10:48.130Z,100092.31
2024-02-24T20:13:14.632Z,100097.16
2024-02-24T20:15:41.225Z,100097.56
2024-02-24T20:18:08.051Z,100099.06
2024-02-24T20:20:34.812Z,100107.72
2024-02-24T20:23:01.393Z,100101.69
2024-02-24T20:25:27.977Z,100109.19
2024-02-24T20:27:54.578Z,100101.28
2024-02-24T20:30:21.071Z,100103.50
2024-02-24T20:32:52.781Z,100096.75
2024-02-24T20:35:28.240Z,100104.56
2024-02-24T20:37:55.011Z,100106.81
2024-02-24T20:40:21.582Z,100104.56
2024-02-24T20:42:48.113Z,100104.56
2024-02-24T20:45:14.652Z,100102.34
2024-02-24T20:47:41.351Z,100100.13
2024-02-24T20:50:08.249Z,100088.09
2024-02-24T20:52:36.987Z,100088.84
2024-02-24T20:55:04.521Z,100089.56
2024-02-24T20:57:31.308Z,100085.03
2024-02-24T20:59:58.641Z,100071.84
2024-02-24T21:02:26.145Z,100073.34
2024-02-24T21:04:52.652Z,100074.81
2024-02-24T21:07:19.353Z,100069.53
2024-02-24T21:09:46.108Z,100078.19
2024-02-24T21:12:13.425Z,100074.81
2024-02-24T21:14:40.222Z,100075.56
2024-02-24T21:17:06.728Z,100073.25
2024-02-24T21:19:34.407Z,100073.25
2024-02-24T21:22:01.086Z,100075.16
2024-02-24T21:24:27.587Z,100062.69
2024-02-24T21:26:54.187Z,100067.56
2024-02-24T21:29:20.708Z,100072.41
2024-02-24T21:31:51.688Z,100066.41
2024-02-24T21:34:20.346Z,100061.13
2024-02-24T21:36:46.884Z,100073.16
2024-02-24T21:39:13.652Z,100068.63
2024-02-24T21:41:40.223Z,100063.75
2024-02-24T21:44:07.280Z,100067.16
2024-02-24T21:46:33.801Z,100058.50
2024-02-24T21:49:00.592Z,100050.56
2024-02-24T21:51:27.237Z,100054.69
2024-02-24T21:53:53.728Z,100047.53
2024-02-24T21:56:21.577Z,100051.63
2024-02-24T21:58:48.084Z,100049.00
2024-02-24T22:01:16.607Z,100043.31
2024-02-24T22:03:43.622Z,100042.56
2024-02-24T22:06:10.421Z,100045.22
2024-02-24T22:08:39.329Z,100044.06
2024-02-24T22:11:06.984Z,100039.19
2024-02-24T22:13:33.634Z,100046.38
2024-02-24T22:16:00.435Z,100040.66
2024-02-24T22:18:27.123Z,100046.38
2024-02-24T22:20:55.072Z,100044.16
2024-02-24T22:23:21.756Z,100036.22
2024-02-24T22:25:48.441Z,100046.03
2024-02-24T22:28:15.174Z,100031.78
2024-02-24T22:30:41.876Z,100041.59
2024-02-24T22:33:08.688Z,100034.09
2024-02-24T22:35:35.892Z,100042.34
2024-02-24T22:38:02.478Z,100033.69
2024-02-24T22:40:29.280Z,100034.09
2024-02-24T22:42:55.798Z,100038.22
2024-02-24T22:45:22.389Z,100031.13
2024-02-24T22:47:49.315Z,100035.25
2024-02-24T22:50:16.426Z,100037.91
2024-02-24T22:52:43.011Z,100031.56
2024-02-24T22:55:09.742Z,100030.41
2024-02-24T22:57:36.365Z,100020.59
2024-02-24T23:00:05.322Z,100029.25
2024-02-24T23:02:31.969Z,100029.97
2024-02-24T23:04:58.504Z,100023.97
2024-02-24T23:07:25.333Z,100028.09
2024-02-24T23:09:51.828Z,100019.84
2024-02-24T23:12:18.387Z,100011.59
2024-02-24T23:14:44.978Z,100011.19
2024-02-24T23:17:11.473Z,100012.34
2024-02-24T23:19:38.113Z,100017.63
2024-02-24T23:22:04.737Z,100013.50
2024-02-24T23:24:31.262Z,100009.72
2024-02-24T23:27:00.258Z,100003.69
2024-02-24T23:29:28.103Z,100008.22
2024-02-24T23:31:54.708Z,100006.75
2024-02-24T23:34:21.410Z,100005.28
2024-02-24T23:36:47.948Z,100010.53
2024-02-24T23:39:14.513Z,100007.16
2024-02-24T23:41:41.132Z,100012.34
2024-02-24T23:44:07.729Z,100003.69
2024-02-24T23:46:34.350Z,99989.03
2024-02-24T23:49:01.036Z,99986.41
2024-02-24T23:51:27.725Z,99984.91
2024-02-24T23:53:54.313Z,99976.69
2024-02-24T23:56:22.071Z,99978.56
2024-02-24T23:58:49.706Z,99985.00
